sensor_id;sensor_type;location;lat;lon;timestamp;temperature;humidity
20366;DHT22;10341;49.894;8.822;2023-07-20T00:04:53;18.00;99.90
20366;DHT22;10341;49.894;8.822;2023-07-20T00:10:12;18.00;99.90
20366;DHT22;10341;49.894;8.822;2023-07-20T00:15:32;18.00;99.90
20366;DHT22;10341;49.894;8.822;2023-07-20T00:20:51;17.90;99.90
20366;DHT22;10341;49.894;8.822;2023-07-20T00:26:10;17.80;99.90
20366;DHT22;10341;49.894;8.822;2023-07-20T00:31:29;17.60;99.90
20366;DHT22;10341;49.894;8.822;2023-07-20T00:36:49;17.40;99.90
20366;DHT22;10341;49.894;8.822;2023-07-20T00:42:09;17.30;99.90
20366;DHT22;10341;49.894;8.822;2023-07-20T00:47:28;17.20;99.90
20366;DHT22;10341;49.894;8.822;2023-07-20T00:52:48;17.10;99.90
20366;DHT22;10341;49.894;8.822;2023-07-20T00:58:08;17.00;99.90
20366;DHT22;10341;49.894;8.822;2023-07-20T01:03:27;16.90;99.90
20366;DHT22;10341;49.894;8.822;2023-07-20T01:14:09;16.70;99.90
20366;DHT22;10341;49.894;8.822;2023-07-20T01:19:29;16.60;99.90
20366;DHT22;10341;49.894;8.822;2023-07-20T01:25:08;16.60;99.90
20366;DHT22;10341;49.894;8.822;2023-07-20T01:30:45;16.50;99.90
20366;DHT22;10341;49.894;8.822;2023-07-20T01:36:05;16.40;99.90
20366;DHT22;10341;49.894;8.822;2023-07-20T01:41:25;16.20;99.90
20366;DHT22;10341;49.894;8.822;2023-07-20T01:46:44;16.10;99.90
20366;DHT22;10341;49.894;8.822;2023-07-20T01:52:04;16.00;99.90
20366;DHT22;10341;49.894;8.822;2023-07-20T01:57:23;16.00;99.90
20366;DHT22;10341;49.894;8.822;2023-07-20T02:02:42;15.80;99.90
20366;DHT22;10341;49.894;8.822;2023-07-20T02:08:03;15.70;99.90
20366;DHT22;10341;49.894;8.822;2023-07-20T02:13:22;15.60;99.90
20366;DHT22;10341;49.894;8.822;2023-07-20T02:18:42;15.50;99.90
20366;DHT22;10341;49.894;8.822;2023-07-20T02:24:01;15.40;99.90
20366;DHT22;10341;49.894;8.822;2023-07-20T02:29:20;15.40;99.90
20366;DHT22;10341;49.894;8.822;2023-07-20T02:34:40;15.30;99.90
20366;DHT22;10341;49.894;8.822;2023-07-20T02:39:59;15.20;99.90
20366;DHT22;10341;49.894;8.822;2023-07-20T02:45:20;15.10;99.90
20366;DHT22;10341;49.894;8.822;2023-07-20T02:50:39;15.00;99.90
20366;DHT22;10341;49.894;8.822;2023-07-20T02:55:58;14.80;99.90
20366;DHT22;10341;49.894;8.822;2023-07-20T03:01:18;14.70;99.90
20366;DHT22;10341;49.894;8.822;2023-07-20T03:06:38;14.60;99.90
20366;DHT22;10341;49.894;8.822;2023-07-20T03:11:57;14.40;99.90
20366;DHT22;10341;49.894;8.822;2023-07-20T03:17:17;14.30;99.90
20366;DHT22;10341;49.894;8.822;2023-07-20T03:22:38;14.20;99.90
20366;DHT22;10341;49.894;8.822;2023-07-20T03:27:58;14.20;99.90
20366;DHT22;10341;49.894;8.822;2023-07-20T03:33:17;14.20;99.90
20366;DHT22;10341;49.894;8.822;2023-07-20T03:38:37;14.10;99.90
20366;DHT22;10341;49.894;8.822;2023-07-20T03:43:57;14.10;99.90
20366;DHT22;10341;49.894;8.822;2023-07-20T03:49:16;14.10;99.90
20366;DHT22;10341;49.894;8.822;2023-07-20T03:54:36;14.00;99.90
20366;DHT22;10341;49.894;8.822;2023-07-20T03:59:56;14.00;99.90
20366;DHT22;10341;49.894;8.822;2023-07-20T04:05:15;14.00;99.90
20366;DHT22;10341;49.894;8.822;2023-07-20T04:10:35;14.00;99.90
20366;DHT22;10341;49.894;8.822;2023-07-20T04:15:54;14.00;99.90
20366;DHT22;10341;49.894;8.822;2023-07-20T04:21:14;14.00;99.90
20366;DHT22;10341;49.894;8.822;2023-07-20T04:26:33;14.20;99.90
20366;DHT22;10341;49.894;8.822;2023-07-20T04:31:52;14.20;99.90
20366;DHT22;10341;49.894;8.822;2023-07-20T04:37:12;14.20;99.90
20366;DHT22;10341;49.894;8.822;2023-07-20T04:42:32;14.30;99.90
20366;DHT22;10341;49.894;8.822;2023-07-20T04:47:52;14.40;99.90
20366;DHT22;10341;49.894;8.822;2023-07-20T04:53:12;14.60;99.90
20366;DHT22;10341;49.894;8.822;2023-07-20T04:58:32;14.70;99.90
20366;DHT22;10341;49.894;8.822;2023-07-20T05:03:52;15.00;99.90
20366;DHT22;10341;49.894;8.822;2023-07-20T05:09:12;15.10;99.90
20366;DHT22;10341;49.894;8.822;2023-07-20T05:14:31;15.30;99.90
20366;DHT22;10341;49.894;8.822;2023-07-20T05:19:51;15.50;99.90
20366;DHT22;10341;49.894;8.822;2023-07-20T05:25:11;15.80;99.90
20366;DHT22;10341;49.894;8.822;2023-07-20T05:30:30;16.10;99.90
20366;DHT22;10341;49.894;8.822;2023-07-20T05:35:50;16.30;99.90
20366;DHT22;10341;49.894;8.822;2023-07-20T05:41:09;16.60;99.90
20366;DHT22;10341;49.894;8.822;2023-07-20T05:46:29;16.80;99.90
20366;DHT22;10341;49.894;8.822;2023-07-20T05:51:48;17.10;99.90
20366;DHT22;10341;49.894;8.822;2023-07-20T05:57:08;17.30;99.90
20366;DHT22;10341;49.894;8.822;2023-07-20T06:02:28;17.60;99.90
20366;DHT22;10341;49.894;8.822;2023-07-20T06:07:48;17.70;99.90
20366;DHT22;10341;49.894;8.822;2023-07-20T06:13:07;17.90;99.90
20366;DHT22;10341;49.894;8.822;2023-07-20T06:18:26;18.10;99.90
20366;DHT22;10341;49.894;8.822;2023-07-20T06:23:46;18.40;99.90
20366;DHT22;10341;49.894;8.822;2023-07-20T06:29:05;18.90;99.90
20366;DHT22;10341;49.894;8.822;2023-07-20T06:34:28;19.20;99.90
20366;DHT22;10341;49.894;8.822;2023-07-20T06:39:48;19.30;99.90
20366;DHT22;10341;49.894;8.822;2023-07-20T06:45:07;19.40;99.90
20366;DHT22;10341;49.894;8.822;2023-07-20T06:50:27;19.50;99.90
20366;DHT22;10341;49.894;8.822;2023-07-20T06:55:47;19.70;99.90
20366;DHT22;10341;49.894;8.822;2023-07-20T07:01:08;19.70;99.90
20366;DHT22;10341;49.894;8.822;2023-07-20T07:06:28;19.90;99.90
20366;DHT22;10341;49.894;8.822;2023-07-20T07:11:47;20.00;99.90
20366;DHT22;10341;49.894;8.822;2023-07-20T07:17:07;20.20;99.90
20366;DHT22;10341;49.894;8.822;2023-07-20T07:22:26;20.50;99.90
20366;DHT22;10341;49.894;8.822;2023-07-20T07:27:45;20.80;99.90
20366;DHT22;10341;49.894;8.822;2023-07-20T07:33:04;21.10;99.90
20366;DHT22;10341;49.894;8.822;2023-07-20T07:38:23;21.10;99.90
20366;DHT22;10341;49.894;8.822;2023-07-20T07:43:43;21.20;99.90
20366;DHT22;10341;49.894;8.822;2023-07-20T07:49:03;21.30;99.90
20366;DHT22;10341;49.894;8.822;2023-07-20T07:54:22;21.30;99.90
20366;DHT22;10341;49.894;8.822;2023-07-20T07:59:42;21.80;99.90
20366;DHT22;10341;49.894;8.822;2023-07-20T08:05:01;22.40;99.90
20366;DHT22;10341;49.894;8.822;2023-07-20T08:10:22;23.00;99.90
20366;DHT22;10341;49.894;8.822;2023-07-20T08:15:49;23.50;99.90
20366;DHT22;10341;49.894;8.822;2023-07-20T08:21:08;23.80;99.90
20366;DHT22;10341;49.894;8.822;2023-07-20T08:26:27;24.10;99.90
20366;DHT22;10341;49.894;8.822;2023-07-20T08:31:47;24.90;99.90
20366;DHT22;10341;49.894;8.822;2023-07-20T08:37:06;27.10;98.00
20366;DHT22;10341;49.894;8.822;2023-07-20T08:42:25;27.60;94.90
20366;DHT22;10341;49.894;8.822;2023-07-20T08:47:45;26.90;95.40
20366;DHT22;10341;49.894;8.822;2023-07-20T08:53:06;25.80;96.70
20366;DHT22;10341;49.894;8.822;2023-07-20T08:58:27;27.70;94.00
20366;DHT22;10341;49.894;8.822;2023-07-20T09:03:48;30.00;92.00
20366;DHT22;10341;49.894;8.822;2023-07-20T09:09:08;29.10;90.30
20366;DHT22;10341;49.894;8.822;2023-07-20T09:14:30;27.00;92.40
20366;DHT22;10341;49.894;8.822;2023-07-20T09:19:50;26.40;93.90
20366;DHT22;10341;49.894;8.822;2023-07-20T09:25:18;28.90;91.30
20366;DHT22;10341;49.894;8.822;2023-07-20T09:30:41;30.50;90.20
20366;DHT22;10341;49.894;8.822;2023-07-20T09:36:04;32.10;86.90
20366;DHT22;10341;49.894;8.822;2023-07-20T09:41:23;33.80;78.40
20366;DHT22;10341;49.894;8.822;2023-07-20T09:46:49;31.30;77.10
20366;DHT22;10341;49.894;8.822;2023-07-20T09:52:11;30.60;79.80
20366;DHT22;10341;49.894;8.822;2023-07-20T09:57:32;29.40;81.00
20366;DHT22;10341;49.894;8.822;2023-07-20T10:02:52;29.40;83.70
20366;DHT22;10341;49.894;8.822;2023-07-20T10:08:12;31.60;77.70
20366;DHT22;10341;49.894;8.822;2023-07-20T10:13:37;29.80;79.40
20366;DHT22;10341;49.894;8.822;2023-07-20T10:19:17;27.80;81.90
20366;DHT22;10341;49.894;8.822;2023-07-20T10:24:39;30.20;77.40
20366;DHT22;10341;49.894;8.822;2023-07-20T10:29:58;30.60;78.40
20366;DHT22;10341;49.894;8.822;2023-07-20T10:35:20;32.70;73.00
20366;DHT22;10341;49.894;8.822;2023-07-20T10:40:40;30.20;75.10
20366;DHT22;10341;49.894;8.822;2023-07-20T10:45:59;29.90;75.20
20366;DHT22;10341;49.894;8.822;2023-07-20T10:51:22;30.50;75.10
20366;DHT22;10341;49.894;8.822;2023-07-20T10:56:43;29.90;78.60
20366;DHT22;10341;49.894;8.822;2023-07-20T11:02:06;28.90;78.80
20366;DHT22;10341;49.894;8.822;2023-07-20T11:07:37;28.90;79.90
20366;DHT22;10341;49.894;8.822;2023-07-20T11:13:17;29.70;76.50
20366;DHT22;10341;49.894;8.822;2023-07-20T11:18:37;28.80;78.00
20366;DHT22;10341;49.894;8.822;2023-07-20T11:23:58;28.20;78.90
20366;DHT22;10341;49.894;8.822;2023-07-20T11:29:23;27.80;80.40
20366;DHT22;10341;49.894;8.822;2023-07-20T11:34:47;27.50;83.50
20366;DHT22;10341;49.894;8.822;2023-07-20T11:40:09;29.60;81.00
20366;DHT22;10341;49.894;8.822;2023-07-20T11:45:28;32.10;74.90
20366;DHT22;10341;49.894;8.822;2023-07-20T11:50:52;35.00;68.60
20366;DHT22;10341;49.894;8.822;2023-07-20T11:56:12;35.20;65.80
20366;DHT22;10341;49.894;8.822;2023-07-20T12:01:32;34.80;65.50
20366;DHT22;10341;49.894;8.822;2023-07-20T12:06:54;34.70;66.40
20366;DHT22;10341;49.894;8.822;2023-07-20T12:12:14;32.20;68.10
20366;DHT22;10341;49.894;8.822;2023-07-20T12:17:33;32.50;66.70
20366;DHT22;10341;49.894;8.822;2023-07-20T12:22:56;31.30;69.70
20366;DHT22;10341;49.894;8.822;2023-07-20T12:28:17;30.50;70.90
20366;DHT22;10341;49.894;8.822;2023-07-20T12:33:38;30.00;70.00
20366;DHT22;10341;49.894;8.822;2023-07-20T12:38:57;28.80;71.20
20366;DHT22;10341;49.894;8.822;2023-07-20T12:44:17;28.80;74.50
20366;DHT22;10341;49.894;8.822;2023-07-20T12:49:37;29.60;73.50
20366;DHT22;10341;49.894;8.822;2023-07-20T12:54:56;30.90;69.00
20366;DHT22;10341;49.894;8.822;2023-07-20T13:00:16;32.10;68.20
20366;DHT22;10341;49.894;8.822;2023-07-20T13:05:36;32.10;66.90
20366;DHT22;10341;49.894;8.822;2023-07-20T13:10:55;31.10;67.10
20366;DHT22;10341;49.894;8.822;2023-07-20T13:16:15;30.70;69.00
20366;DHT22;10341;49.894;8.822;2023-07-20T13:21:35;31.60;68.90
20366;DHT22;10341;49.894;8.822;2023-07-20T13:26:55;31.20;68.40
20366;DHT22;10341;49.894;8.822;2023-07-20T13:32:15;29.80;70.90
20366;DHT22;10341;49.894;8.822;2023-07-20T13:37:34;28.60;73.80
20366;DHT22;10341;49.894;8.822;2023-07-20T13:42:53;28.00;75.00
20366;DHT22;10341;49.894;8.822;2023-07-20T13:48:13;27.50;75.20
20366;DHT22;10341;49.894;8.822;2023-07-20T13:53:33;27.00;77.30
20366;DHT22;10341;49.894;8.822;2023-07-20T13:58:53;27.30;77.70
20366;DHT22;10341;49.894;8.822;2023-07-20T14:04:12;27.40;76.30
20366;DHT22;10341;49.894;8.822;2023-07-20T14:09:32;27.60;76.00
20366;DHT22;10341;49.894;8.822;2023-07-20T14:14:53;27.40;76.20
20366;DHT22;10341;49.894;8.822;2023-07-20T14:20:12;27.50;76.80
20366;DHT22;10341;49.894;8.822;2023-07-20T14:25:31;27.30;76.20
20366;DHT22;10341;49.894;8.822;2023-07-20T14:30:51;27.80;75.90
20366;DHT22;10341;49.894;8.822;2023-07-20T14:36:11;28.30;74.90
20366;DHT22;10341;49.894;8.822;2023-07-20T14:41:31;28.70;74.50
20366;DHT22;10341;49.894;8.822;2023-07-20T14:46:50;29.10;72.90
20366;DHT22;10341;49.894;8.822;2023-07-20T14:52:10;30.30;70.10
20366;DHT22;10341;49.894;8.822;2023-07-20T14:57:30;31.00;66.00
20366;DHT22;10341;49.894;8.822;2023-07-20T15:02:49;31.70;67.10
20366;DHT22;10341;49.894;8.822;2023-07-20T15:08:09;31.90;64.60
20366;DHT22;10341;49.894;8.822;2023-07-20T15:13:28;31.00;65.60
20366;DHT22;10341;49.894;8.822;2023-07-20T15:18:48;31.00;66.70
20366;DHT22;10341;49.894;8.822;2023-07-20T15:24:07;31.90;63.80
20366;DHT22;10341;49.894;8.822;2023-07-20T15:29:27;32.10;61.20
20366;DHT22;10341;49.894;8.822;2023-07-20T15:34:46;32.20;62.60
20366;DHT22;10341;49.894;8.822;2023-07-20T15:40:06;31.90;61.70
20366;DHT22;10341;49.894;8.822;2023-07-20T15:45:28;30.50;61.70
20366;DHT22;10341;49.894;8.822;2023-07-20T15:50:47;29.90;63.00
20366;DHT22;10341;49.894;8.822;2023-07-20T15:56:06;29.10;65.80
20366;DHT22;10341;49.894;8.822;2023-07-20T16:01:26;30.20;63.70
20366;DHT22;10341;49.894;8.822;2023-07-20T16:06:46;31.00;63.40
20366;DHT22;10341;49.894;8.822;2023-07-20T16:12:06;31.70;59.60
20366;DHT22;10341;49.894;8.822;2023-07-20T16:17:25;31.90;59.70
20366;DHT22;10341;49.894;8.822;2023-07-20T16:22:44;30.30;64.90
20366;DHT22;10341;49.894;8.822;2023-07-20T16:28:04;29.80;65.40
20366;DHT22;10341;49.894;8.822;2023-07-20T16:33:24;30.00;66.30
20366;DHT22;10341;49.894;8.822;2023-07-20T16:38:43;30.00;65.40
20366;DHT22;10341;49.894;8.822;2023-07-20T16:44:03;29.30;65.60
20366;DHT22;10341;49.894;8.822;2023-07-20T16:49:23;28.80;68.30
20366;DHT22;10341;49.894;8.822;2023-07-20T16:54:42;28.10;69.10
20366;DHT22;10341;49.894;8.822;2023-07-20T17:00:02;27.70;69.10
20366;DHT22;10341;49.894;8.822;2023-07-20T17:05:22;27.20;69.40
20366;DHT22;10341;49.894;8.822;2023-07-20T17:10:42;26.80;70.70
20366;DHT22;10341;49.894;8.822;2023-07-20T17:16:01;26.50;71.20
20366;DHT22;10341;49.894;8.822;2023-07-20T17:21:21;26.30;71.70
20366;DHT22;10341;49.894;8.822;2023-07-20T17:26:41;26.40;72.50
20366;DHT22;10341;49.894;8.822;2023-07-20T17:32:00;26.30;71.60
20366;DHT22;10341;49.894;8.822;2023-07-20T17:37:20;26.00;71.90
20366;DHT22;10341;49.894;8.822;2023-07-20T17:42:40;25.80;72.40
20366;DHT22;10341;49.894;8.822;2023-07-20T17:47:59;25.50;73.30
20366;DHT22;10341;49.894;8.822;2023-07-20T17:53:20;25.40;75.20
20366;DHT22;10341;49.894;8.822;2023-07-20T17:58:39;25.10;76.00
20366;DHT22;10341;49.894;8.822;2023-07-20T18:03:58;24.80;77.20
20366;DHT22;10341;49.894;8.822;2023-07-20T18:09:18;24.50;79.20
20366;DHT22;10341;49.894;8.822;2023-07-20T18:14:38;24.30;77.40
20366;DHT22;10341;49.894;8.822;2023-07-20T18:19:57;24.00;79.00
20366;DHT22;10341;49.894;8.822;2023-07-20T18:25:17;23.80;79.30
20366;DHT22;10341;49.894;8.822;2023-07-20T18:30:36;23.60;79.60
20366;DHT22;10341;49.894;8.822;2023-07-20T18:35:56;23.40;80.30
20366;DHT22;10341;49.894;8.822;2023-07-20T18:41:15;23.30;81.20
20366;DHT22;10341;49.894;8.822;2023-07-20T18:46:36;23.10;81.90
20366;DHT22;10341;49.894;8.822;2023-07-20T18:51:55;23.00;83.20
20366;DHT22;10341;49.894;8.822;2023-07-20T18:57:14;22.80;84.40
20366;DHT22;10341;49.894;8.822;2023-07-20T19:02:34;22.60;86.30
20366;DHT22;10341;49.894;8.822;2023-07-20T19:07:54;22.30;87.20
20366;DHT22;10341;49.894;8.822;2023-07-20T19:13:15;22.10;88.80
20366;DHT22;10341;49.894;8.822;2023-07-20T19:18:35;21.90;90.20
20366;DHT22;10341;49.894;8.822;2023-07-20T19:23:58;21.80;90.80
20366;DHT22;10341;49.894;8.822;2023-07-20T19:29:18;21.70;92.10
20366;DHT22;10341;49.894;8.822;2023-07-20T19:34:38;21.50;91.80
20366;DHT22;10341;49.894;8.822;2023-07-20T19:39:58;21.40;92.90
20366;DHT22;10341;49.894;8.822;2023-07-20T19:45:17;21.30;93.20
20366;DHT22;10341;49.894;8.822;2023-07-20T19:50:37;21.20;93.60
20366;DHT22;10341;49.894;8.822;2023-07-20T19:56:01;21.00;93.70
20366;DHT22;10341;49.894;8.822;2023-07-20T20:01:21;20.90;94.70
20366;DHT22;10341;49.894;8.822;2023-07-20T20:06:42;20.80;94.90
20366;DHT22;10341;49.894;8.822;2023-07-20T20:12:02;20.70;95.30
20366;DHT22;10341;49.894;8.822;2023-07-20T20:17:22;20.60;96.00
20366;DHT22;10341;49.894;8.822;2023-07-20T20:22:42;20.60;96.70
20366;DHT22;10341;49.894;8.822;2023-07-20T20:28:01;20.60;97.80
20366;DHT22;10341;49.894;8.822;2023-07-20T20:33:21;20.50;98.20
20366;DHT22;10341;49.894;8.822;2023-07-20T20:38:41;20.50;97.40
20366;DHT22;10341;49.894;8.822;2023-07-20T20:44:00;20.40;98.00
20366;DHT22;10341;49.894;8.822;2023-07-20T20:49:19;20.20;99.90
20366;DHT22;10341;49.894;8.822;2023-07-20T20:54:40;20.00;99.90
20366;DHT22;10341;49.894;8.822;2023-07-20T20:59:59;19.80;99.90
20366;DHT22;10341;49.894;8.822;2023-07-20T21:05:19;19.60;99.90
20366;DHT22;10341;49.894;8.822;2023-07-20T21:10:44;19.40;99.90
20366;DHT22;10341;49.894;8.822;2023-07-20T21:16:04;19.30;99.90
20366;DHT22;10341;49.894;8.822;2023-07-20T21:21:24;19.20;99.90
20366;DHT22;10341;49.894;8.822;2023-07-20T21:26:43;19.10;99.90
20366;DHT22;10341;49.894;8.822;2023-07-20T21:32:03;19.10;99.90
20366;DHT22;10341;49.894;8.822;2023-07-20T21:37:23;19.10;99.90
20366;DHT22;10341;49.894;8.822;2023-07-20T21:42:42;19.00;99.90
20366;DHT22;10341;49.894;8.822;2023-07-20T21:48:02;18.90;99.90
20366;DHT22;10341;49.894;8.822;2023-07-20T21:53:21;18.80;99.90
20366;DHT22;10341;49.894;8.822;2023-07-20T21:58:41;18.70;99.90
20366;DHT22;10341;49.894;8.822;2023-07-20T22:04:00;18.60;99.90
20366;DHT22;10341;49.894;8.822;2023-07-20T22:09:20;18.50;99.90
20366;DHT22;10341;49.894;8.822;2023-07-20T22:14:41;18.50;99.90
20366;DHT22;10341;49.894;8.822;2023-07-20T22:20:01;18.40;99.90
20366;DHT22;10341;49.894;8.822;2023-07-20T22:25:24;18.30;99.90
20366;DHT22;10341;49.894;8.822;2023-07-20T22:30:43;18.20;99.90
20366;DHT22;10341;49.894;8.822;2023-07-20T22:36:04;18.20;99.90
20366;DHT22;10341;49.894;8.822;2023-07-20T22:41:24;18.20;99.90
20366;DHT22;10341;49.894;8.822;2023-07-20T22:46:43;18.20;99.90
20366;DHT22;10341;49.894;8.822;2023-07-20T22:52:03;18.10;99.90
20366;DHT22;10341;49.894;8.822;2023-07-20T22:57:22;18.00;99.90
20366;DHT22;10341;49.894;8.822;2023-07-20T23:02:42;17.90;99.90
20366;DHT22;10341;49.894;8.822;2023-07-20T23:08:03;17.80;99.90
20366;DHT22;10341;49.894;8.822;2023-07-20T23:13:22;17.80;99.90
20366;DHT22;10341;49.894;8.822;2023-07-20T23:18:43;17.90;99.90
20366;DHT22;10341;49.894;8.822;2023-07-20T23:24:05;17.80;99.90
20366;DHT22;10341;49.894;8.822;2023-07-20T23:29:24;17.70;99.90
20366;DHT22;10341;49.894;8.822;2023-07-20T23:34:44;17.60;99.90
20366;DHT22;10341;49.894;8.822;2023-07-20T23:40:04;17.50;99.90
20366;DHT22;10341;49.894;8.822;2023-07-20T23:45:33;17.50;99.90
20366;DHT22;10341;49.894;8.822;2023-07-20T23:50:55;17.50;99.90
20366;DHT22;10341;49.894;8.822;2023-07-20T23:56:15;17.40;99.90
